Time;durP1;ratioP1;P1;durP2;ratioP2;P2;SDS_P1;SDS_P2;PMS_P1;PMS_P2;Temp;Humidity;BMP_temperature;BMP_pressure;BME280_temperature;BME280_humidity;BME280_pressure;Samples;Min_cycle;Max_cycle;Signal;HPM_P1;HPM_P2
2023/07/25 00:00:34;;;;;;;1.58;0.63;;;21.50;57.00;;;;;;5014188;28;20054;-74
2023/07/25 00:03:00;;;;;;;0.57;0.50;;;21.50;56.90;;;;;;5013575;28;20050;-74
2023/07/25 00:05:26;;;;;;;0.70;0.40;;;21.50;57.00;;;;;;5013936;28;20036;-74
2023/07/25 00:07:51;;;;;;;0.75;0.40;;;21.50;57.00;;;;;;5013859;28;20053;-74
2023/07/25 00:10:18;;;;;;;1.13;0.55;;;21.50;56.90;;;;;;5013923;28;20056;-74
2023/07/25 00:12:44;;;;;;;0.82;0.70;;;21.50;56.80;;;;;;5013606;28;20060;-74
2023/07/25 00:15:10;;;;;;;1.25;0.35;;;21.40;56.80;;;;;;5013806;28;20046;-74
2023/07/25 00:17:36;;;;;;;0.63;0.50;;;21.50;57.00;;;;;;4995977;28;20550;-74
2023/07/25 00:20:02;;;;;;;0.63;0.20;;;21.40;56.80;;;;;;5013606;28;20026;-74
2023/07/25 00:22:27;;;;;;;1.00;0.30;;;21.40;56.90;;;;;;5013434;28;20040;-74
2023/07/25 00:24:53;;;;;;;0.75;0.40;;;21.40;56.80;;;;;;5013447;28;20021;-74
2023/07/25 00:27:18;;;;;;;0.60;0.40;;;21.40;56.90;;;;;;5013936;28;20473;-74
2023/07/25 00:29:44;;;;;;;0.95;0.40;;;21.40;56.90;;;;;;5013451;28;20025;-74
2023/07/25 00:32:10;;;;;;;0.65;0.40;;;21.40;57.00;;;;;;5013414;28;20034;-74
2023/07/25 00:34:35;;;;;;;1.10;0.30;;;21.40;56.80;;;;;;5013360;28;20037;-74
2023/07/25 00:37:01;;;;;;;0.80;0.40;;;21.40;57.00;;;;;;5013160;28;20057;-74
2023/07/25 00:39:27;;;;;;;0.57;0.32;;;21.40;57.00;;;;;;5013496;28;20048;-76
2023/07/25 00:41:53;;;;;;;0.55;0.30;;;21.30;56.90;;;;;;5013313;28;20392;-77
2023/07/25 00:44:19;;;;;;;0.40;0.20;;;21.30;56.80;;;;;;5013184;28;20061;-76
2023/07/25 00:46:45;;;;;;;1.10;0.38;;;21.30;56.80;;;;;;5013066;28;20037;-76
2023/07/25 00:49:12;;;;;;;1.60;0.60;;;21.30;56.80;;;;;;5013159;28;20018;-76
2023/07/25 00:51:38;;;;;;;0.45;0.28;;;21.30;56.80;;;;;;5013491;28;20030;-76
2023/07/25 00:54:04;;;;;;;1.92;0.50;;;21.30;56.80;;;;;;5012955;28;20026;-76
2023/07/25 00:56:29;;;;;;;1.30;0.60;;;21.30;56.80;;;;;;5013181;28;20041;-76
2023/07/25 00:58:55;;;;;;;0.40;0.40;;;21.30;56.80;;;;;;5013022;28;20041;-76
2023/07/25 01:01:21;;;;;;;0.88;0.40;;;21.20;75.90;;;;;;5012973;28;20084;-76
2023/07/25 01:03:47;;;;;;;1.48;0.50;;;21.20;56.70;;;;;;5012834;28;20127;-76
2023/07/25 01:06:14;;;;;;;0.80;0.40;;;21.20;56.30;;;;;;5012615;28;20032;-76
2023/07/25 01:08:50;;;;;;;1.75;0.60;;;21.20;56.80;;;;;;5012859;28;20049;-76
2023/07/25 01:11:16;;;;;;;0.75;0.40;;;21.20;56.80;;;;;;5012797;28;20026;-76
2023/07/25 01:13:42;;;;;;;0.55;0.40;;;21.20;56.80;;;;;;5013205;28;20048;-76
2023/07/25 01:16:10;;;;;;;1.40;0.45;;;21.20;57.00;;;;;;5012787;28;20476;-76
2023/07/25 01:18:37;;;;;;;0.65;0.30;;;21.20;57.00;;;;;;5012646;28;20396;-76
2023/07/25 01:21:03;;;;;;;0.57;0.30;;;21.20;56.90;;;;;;5012500;28;20076;-76
2023/07/25 01:23:30;;;;;;;0.38;0.30;;;21.20;56.80;;;;;;5012570;28;20156;-76
2023/07/25 01:25:56;;;;;;;1.80;0.40;;;21.10;56.80;;;;;;5012577;28;20030;-76
2023/07/25 01:28:22;;;;;;;0.40;0.30;;;21.10;56.90;;;;;;5012676;28;20085;-76
2023/07/25 01:30:48;;;;;;;1.02;0.30;;;21.10;56.90;;;;;;5012263;28;20099;-75
2023/07/25 01:33:13;;;;;;;0.70;0.40;;;21.10;56.80;;;;;;5012362;28;20488;-76
2023/07/25 01:35:39;;;;;;;0.35;0.30;;;21.10;56.80;;;;;;5012395;28;20035;-75
2023/07/25 01:38:05;;;;;;;0.22;0.20;;;21.10;56.90;;;;;;5012565;28;20034;-76
2023/07/25 01:40:30;;;;;;;0.85;0.40;;;21.10;56.80;;;;;;5012339;28;20480;-75
2023/07/25 01:42:56;;;;;;;0.98;0.50;;;21.10;56.80;;;;;;5012878;28;20030;-77
2023/07/25 01:45:21;;;;;;;1.25;0.47;;;21.10;56.80;;;;;;5012335;28;20026;-75
2023/07/25 01:47:47;;;;;;;0.82;0.30;;;21.10;56.80;;;;;;5012066;28;20029;-76
2023/07/25 01:50:13;;;;;;;1.17;0.50;;;21.00;56.80;;;;;;5012111;28;20473;-75
2023/07/25 01:52:38;;;;;;;1.15;0.40;;;21.00;56.70;;;;;;5012173;28;20109;-76
2023/07/25 01:55:05;;;;;;;1.20;0.32;;;21.00;56.80;;;;;;5012151;28;20080;-76
2023/07/25 01:57:30;;;;;;;1.10;0.40;;;21.00;56.70;;;;;;5012077;28;20048;-75
2023/07/25 01:59:57;;;;;;;1.20;0.40;;;21.00;56.80;;;;;;5011984;28;20030;-76
2023/07/25 02:02:23;;;;;;;0.77;0.43;;;21.00;56.80;;;;;;5011797;28;20050;-76
2023/07/25 02:04:48;;;;;;;0.73;0.50;;;21.00;56.70;;;;;;5011870;28;20448;-76
2023/07/25 02:07:14;;;;;;;0.70;0.40;;;21.00;56.80;;;;;;5011840;28;20104;-76
2023/07/25 02:09:39;;;;;;;0.63;0.40;;;21.00;56.80;;;;;;5012475;28;20025;-76
2023/07/25 02:12:07;;;;;;;1.13;0.57;;;21.00;56.80;;;;;;5011886;28;20033;-77
2023/07/25 02:14:32;;;;;;;0.93;0.30;;;20.90;56.60;;;;;;5011952;28;20523;-76
2023/07/25 02:16:58;;;;;;;1.00;0.40;;;21.00;56.70;;;;;;5011577;28;20061;-75
2023/07/25 02:19:24;;;;;;;1.27;0.38;;;20.90;56.80;;;;;;5015290;28;20030;-76
2023/07/25 02:21:49;;;;;;;0.75;0.43;;;20.90;56.70;;;;;;5016000;28;20378;-76
2023/07/25 02:24:15;;;;;;;0.60;0.47;;;20.90;56.60;;;;;;5015848;28;20030;-76
2023/07/25 02:26:40;;;;;;;0.50;0.40;;;20.90;56.70;;;;;;5015889;28;20061;-76
2023/07/25 02:29:06;;;;;;;0.60;0.40;;;20.90;56.80;;;;;;5015798;28;20369;-76
2023/07/25 02:31:32;;;;;;;0.55;0.30;;;20.90;56.60;;;;;;5015799;28;20054;-78
2023/07/25 02:33:57;;;;;;;0.93;0.40;;;20.90;56.70;;;;;;5015818;28;20510;-76
2023/07/25 02:36:23;;;;;;;1.40;0.43;;;20.90;56.70;;;;;;5015662;28;20040;-77
2023/07/25 02:38:48;;;;;;;1.00;0.35;;;20.90;56.80;;;;;;5016072;28;20049;-76
2023/07/25 02:41:14;;;;;;;0.60;0.35;;;20.80;56.80;;;;;;5015814;28;20357;-76
2023/07/25 02:43:41;;;;;;;0.88;0.40;;;20.80;56.70;;;;;;5015502;28;20021;-76
2023/07/25 02:46:07;;;;;;;0.50;0.32;;;20.90;56.80;;;;;;5015427;28;20029;-76
2023/07/25 02:48:33;;;;;;;1.88;0.60;;;20.90;56.80;;;;;;5015878;28;20036;-76
2023/07/25 02:50:59;;;;;;;0.90;0.30;;;20.80;56.70;;;;;;5015746;28;20026;-76
2023/07/25 02:53:25;;;;;;;0.40;0.40;;;20.80;56.70;;;;;;5015821;28;20088;-76
2023/07/25 02:55:54;;;;;;;1.02;0.52;;;20.80;56.80;;;;;;5015415;28;20022;-77
2023/07/25 02:58:20;;;;;;;0.35;0.30;;;20.80;56.70;;;;;;5015633;28;20037;-76
2023/07/25 03:00:47;;;;;;;0.40;0.40;;;20.80;56.80;;;;;;5015115;28;20041;-76
2023/07/25 03:03:14;;;;;;;0.70;0.40;;;20.80;56.80;;;;;;5014896;28;20049;-76
2023/07/25 03:05:40;;;;;;;0.47;0.38;;;20.80;56.80;;;;;;5015736;28;20026;-76
2023/07/25 03:08:06;;;;;;;1.05;0.43;;;20.80;56.80;;;;;;5015723;28;20565;-76
2023/07/25 03:10:33;;;;;;;1.23;0.43;;;20.80;56.70;;;;;;5015103;28;20053;-76
2023/07/25 03:12:58;;;;;;;0.75;0.40;;;20.80;56.80;;;;;;5014926;28;20132;-76
2023/07/25 03:15:24;;;;;;;0.55;0.30;;;20.70;56.70;;;;;;5014784;28;20030;-76
2023/07/25 03:17:50;;;;;;;0.77;0.30;;;20.70;56.70;;;;;;5014787;28;20396;-76
2023/07/25 03:20:16;;;;;;;0.60;0.28;;;20.70;56.70;;;;;;5014812;28;20026;-76
2023/07/25 03:22:42;;;;;;;0.30;0.30;;;20.70;56.70;;;;;;5014776;28;20084;-76
2023/07/25 03:25:08;;;;;;;0.73;0.40;;;20.70;56.90;;;;;;5014652;28;20081;-76
2023/07/25 03:27:34;;;;;;;0.85;0.38;;;20.70;56.80;;;;;;5014605;28;20025;-76
2023/07/25 03:30:00;;;;;;;0.75;0.45;;;20.70;56.80;;;;;;5014305;28;20026;-76
2023/07/25 03:32:25;;;;;;;0.52;0.30;;;20.70;56.80;;;;;;5014493;28;20112;-76
2023/07/25 03:34:51;;;;;;;0.80;0.30;;;20.80;76.30;;;;;;5015083;28;20026;-76
2023/07/25 03:37:17;;;;;;;0.43;0.40;;;20.70;57.00;;;;;;5014259;28;20040;-76
2023/07/25 03:39:42;;;;;;;0.65;0.35;;;20.60;56.80;;;;;;5014519;28;20121;-76
2023/07/25 03:42:08;;;;;;;0.70;0.43;;;20.60;56.80;;;;;;5014421;28;20029;-76
2023/07/25 03:44:33;;;;;;;1.15;0.40;;;20.70;56.80;;;;;;5014536;28;20017;-76
2023/07/25 03:46:59;;;;;;;0.77;0.30;;;20.60;56.70;;;;;;5014504;28;20377;-76
2023/07/25 03:49:25;;;;;;;0.80;0.50;;;20.60;56.80;;;;;;5014126;28;20487;-74
2023/07/25 03:51:50;;;;;;;2.30;0.50;;;20.60;56.80;;;;;;5014238;28;20075;-74
2023/07/25 03:54:17;;;;;;;0.25;0.25;;;20.60;56.80;;;;;;5013733;28;20037;-73
2023/07/25 03:56:44;;;;;;;1.33;0.52;;;20.60;56.80;;;;;;5013882;28;20510;-73
2023/07/25 03:59:10;;;;;;;0.73;0.40;;;20.60;56.80;;;;;;5013967;28;20065;-73
2023/07/25 04:01:35;;;;;;;0.45;0.30;;;20.60;56.80;;;;;;5013665;28;20061;-73
2023/07/25 04:04:01;;;;;;;1.13;0.30;;;20.50;56.70;;;;;;5014484;28;20034;-73
2023/07/25 04:06:27;;;;;;;1.67;0.40;;;20.50;56.80;;;;;;5013938;28;20063;-73
2023/07/25 04:08:52;;;;;;;0.60;0.30;;;20.50;56.80;;;;;;5013716;28;20030;-73
2023/07/25 04:11:18;;;;;;;0.60;0.30;;;20.50;56.80;;;;;;5013712;28;20176;-74
2023/07/25 04:13:44;;;;;;;0.93;0.50;;;20.50;56.80;;;;;;5013499;28;20029;-73
2023/07/25 04:16:09;;;;;;;0.47;0.30;;;20.60;56.90;;;;;;5013671;28;20026;-74
2023/07/25 04:18:35;;;;;;;0.68;0.40;;;20.50;56.80;;;;;;5013394;28;20081;-73
2023/07/25 04:21:01;;;;;;;0.65;0.50;;;20.50;56.80;;;;;;5013778;28;20104;-74
2023/07/25 04:23:27;;;;;;;0.75;0.30;;;20.50;56.80;;;;;;5013682;28;20383;-73
2023/07/25 04:25:53;;;;;;;0.50;0.30;;;20.50;56.80;;;;;;5013659;28;20080;-74
2023/07/25 04:28:19;;;;;;;0.68;0.22;;;20.50;56.90;;;;;;5013678;28;20108;-73
2023/07/25 04:30:45;;;;;;;1.02;0.63;;;20.50;56.80;;;;;;5013540;28;20026;-74
2023/07/25 04:33:11;;;;;;;0.73;0.40;;;19.50;56.30;;;;;;5014160;28;20026;-74
2023/07/25 04:35:37;;;;;;;0.85;0.55;;;20.50;56.90;;;;;;5013476;28;20438;-74
2023/07/25 04:38:03;;;;;;;0.57;0.22;;;20.50;56.90;;;;;;5013537;28;20069;-74
2023/07/25 04:40:29;;;;;;;0.77;0.40;;;20.50;57.00;;;;;;5012436;28;20018;-74
2023/07/25 04:42:55;;;;;;;0.30;0.30;;;20.40;56.90;;;;;;5013432;28;20396;-73
2023/07/25 04:45:21;;;;;;;0.65;0.45;;;20.50;56.90;;;;;;5013290;28;20026;-74
2023/07/25 04:47:47;;;;;;;0.32;0.30;;;20.40;57.50;;;;;;5013084;28;20030;-74
2023/07/25 04:50:12;;;;;;;0.57;0.40;;;20.50;56.90;;;;;;5013087;28;20030;-74
2023/07/25 04:52:38;;;;;;;0.75;0.40;;;20.40;56.80;;;;;;5012983;28;20022;-74
2023/07/25 04:55:04;;;;;;;0.60;0.30;;;20.40;56.90;;;;;;5012975;28;20125;-74
2023/07/25 04:57:29;;;;;;;0.88;0.40;;;20.40;56.90;;;;;;4995166;28;20510;-74
2023/07/25 04:59:55;;;;;;;1.85;0.60;;;20.40;56.90;;;;;;5012927;28;20030;-74
2023/07/25 05:02:22;;;;;;;0.52;0.52;;;20.40;56.90;;;;;;5013132;28;20563;-74
2023/07/25 05:04:47;;;;;;;0.60;0.50;;;20.40;57.00;;;;;;5012679;28;20033;-74
2023/07/25 05:07:17;;;;;;;0.47;0.47;;;20.40;57.00;;;;;;5012762;28;20469;-74
2023/07/25 05:09:43;;;;;;;1.38;0.40;;;20.40;57.00;;;;;;5012718;28;20521;-74
2023/07/25 05:12:12;;;;;;;0.88;0.40;;;20.40;57.00;;;;;;5012706;28;20026;-76
2023/07/25 05:14:37;;;;;;;0.93;0.30;;;20.40;57.00;;;;;;5012619;28;20034;-76
2023/07/25 05:17:03;;;;;;;2.10;0.40;;;20.40;57.10;;;;;;5012394;28;20095;-76
2023/07/25 05:19:29;;;;;;;0.90;0.45;;;20.40;57.00;;;;;;4995403;28;20093;-76
2023/07/25 05:21:54;;;;;;;0.82;0.30;;;20.40;57.70;;;;;;5012631;28;20076;-76
2023/07/25 05:24:20;;;;;;;0.40;0.30;;;20.40;57.00;;;;;;5012587;28;20037;-76
2023/07/25 05:26:45;;;;;;;0.70;0.40;;;20.40;57.00;;;;;;5012418;28;20472;-76
2023/07/25 05:29:11;;;;;;;1.58;0.30;;;20.40;57.00;;;;;;5012848;28;20033;-72
2023/07/25 05:31:37;;;;;;;1.48;0.55;;;20.30;57.10;;;;;;5012472;28;20038;-75
2023/07/25 05:34:02;;;;;;;2.05;0.50;;;20.30;57.10;;;;;;5015614;28;20167;-80
2023/07/25 05:36:28;;;;;;;1.02;0.30;;;20.40;57.10;;;;;;5012537;28;20017;-75
2023/07/25 05:38:54;;;;;;;1.05;0.50;;;20.30;57.10;;;;;;5012050;28;20034;-76
2023/07/25 05:41:21;;;;;;;0.73;0.32;;;20.30;57.10;;;;;;5012422;28;20059;-77
2023/07/25 05:43:47;;;;;;;1.10;0.30;;;20.30;57.10;;;;;;5012623;28;20041;-76
2023/07/25 05:46:13;;;;;;;1.60;0.40;;;20.30;57.20;;;;;;5012592;28;20424;-76
2023/07/25 05:48:39;;;;;;;1.00;0.47;;;20.30;57.10;;;;;;4994657;28;20477;-76
2023/07/25 05:51:05;;;;;;;0.95;0.52;;;20.30;57.20;;;;;;5012285;28;20384;-75
2023/07/25 05:53:32;;;;;;;1.00;0.50;;;20.30;57.20;;;;;;5012318;28;20022;-75
2023/07/25 05:55:58;;;;;;;1.02;0.50;;;;;;;;;;5012242;28;20097;-75
2023/07/25 05:58:24;;;;;;;0.57;0.35;;;20.30;56.70;;;;;;5012537;28;20095;-75
2023/07/25 06:00:50;;;;;;;1.38;0.52;;;20.30;57.30;;;;;;5012072;28;20048;-76
2023/07/25 06:03:17;;;;;;;0.50;0.50;;;20.30;57.30;;;;;;5011673;28;20056;-76
2023/07/25 06:05:43;;;;;;;1.10;0.63;;;20.30;57.60;;;;;;5012065;28;20369;-75
2023/07/25 06:08:09;;;;;;;2.53;0.40;;;20.30;57.90;;;;;;5012226;28;20472;-76
2023/07/25 06:10:36;;;;;;;1.20;0.47;;;20.30;57.00;;;;;;5013570;28;20030;-78
2023/07/25 06:13:06;;;;;;;1.05;0.38;;;20.30;57.60;;;;;;5011922;28;20028;-76
2023/07/25 06:15:35;;;;;;;0.70;0.40;;;20.30;57.50;;;;;;5011718;28;20422;-77
2023/07/25 06:18:03;;;;;;;0.70;0.60;;;20.30;57.10;;;;;;5011595;28;20041;-76
2023/07/25 06:20:32;;;;;;;1.40;0.40;;;20.30;57.60;;;;;;5012076;28;20022;-76
2023/07/25 06:23:01;;;;;;;0.60;0.38;;;20.60;57.70;;;;;;5011945;28;20506;-75
2023/07/25 06:25:28;;;;;;;1.23;0.60;;;20.30;57.50;;;;;;5012254;28;20032;-77
2023/07/25 06:27:54;;;;;;;0.98;0.40;;;20.30;57.50;;;;;;5012205;28;20073;-77
2023/07/25 06:30:20;;;;;;;0.98;0.43;;;20.30;57.60;;;;;;5011884;28;20030;-77
2023/07/25 06:32:46;;;;;;;1.17;0.40;;;20.30;57.50;;;;;;4994345;28;20388;-78
2023/07/25 06:35:12;;;;;;;1.30;0.60;;;20.30;57.50;;;;;;5011793;28;20042;-77
2023/07/25 06:37:39;;;;;;;1.63;0.40;;;20.40;57.50;;;;;;5011686;28;20432;-81
2023/07/25 06:40:05;;;;;;;2.13;0.50;;;20.30;57.60;;;;;;5011616;28;20018;-82
2023/07/25 06:42:31;;;;;;;0.55;0.35;;;20.30;57.80;;;;;;5011644;28;20045;-80
2023/07/25 06:44:57;;;;;;;3.20;0.70;;;20.30;57.70;;;;;;5011651;28;20515;-77
2023/07/25 06:47:23;;;;;;;1.77;0.55;;;20.30;57.80;;;;;;5011449;28;20125;-77
2023/07/25 06:49:49;;;;;;;2.40;0.50;;;20.40;58.00;;;;;;5011595;28;20030;-79
2023/07/25 06:52:15;;;;;;;1.23;0.50;;;20.40;58.20;;;;;;5011240;28;20022;-78
2023/07/25 06:54:43;;;;;;;1.92;0.50;;;20.40;58.10;;;;;;5011490;28;20084;-78
2023/07/25 06:57:08;;;;;;;0.73;0.30;;;20.30;58.20;;;;;;4993698;28;20050;-81
2023/07/25 06:59:34;;;;;;;1.23;0.38;;;20.30;58.20;;;;;;5011400;28;20022;-79
2023/07/25 07:02:00;;;;;;;0.50;0.43;;;20.40;58.70;;;;;;5010911;28;20061;-75
2023/07/25 07:04:25;;;;;;;2.13;0.50;;;20.40;58.20;;;;;;5013404;28;20022;-75
2023/07/25 07:06:51;;;;;;;3.25;0.50;;;20.40;58.20;;;;;;5014851;28;20033;-76
2023/07/25 07:09:17;;;;;;;1.92;0.50;;;20.40;58.20;;;;;;5014714;28;20022;-79
2023/07/25 07:11:43;;;;;;;0.65;0.50;;;20.40;58.30;;;;;;5014870;28;20038;-79
2023/07/25 07:14:09;;;;;;;2.97;0.50;;;20.40;58.30;;;;;;5014970;28;20392;-78
2023/07/25 07:16:35;;;;;;;2.75;0.60;;;20.50;58.30;;;;;;5015367;28;20049;-78
2023/07/25 07:19:02;;;;;;;3.97;0.60;;;20.40;58.40;;;;;;5014966;28;20034;-79
2023/07/25 07:21:28;;;;;;;1.98;0.60;;;20.30;58.40;;;;;;5015076;28;20076;-78
2023/07/25 07:23:54;;;;;;;1.20;0.35;;;20.50;58.60;;;;;;5014892;28;20118;-78
2023/07/25 07:26:20;;;;;;;1.85;0.68;;;20.50;58.70;;;;;;5015168;28;20022;-77
2023/07/25 07:28:46;;;;;;;1.80;0.70;;;20.50;58.70;;;;;;5015012;28;20053;-78
2023/07/25 07:31:12;;;;;;;2.15;0.50;;;20.50;58.70;;;;;;5015201;28;20548;-78
2023/07/25 07:33:39;;;;;;;4.32;1.00;;;20.50;58.70;;;;;;5014598;28;20390;-78
2023/07/25 07:36:06;;;;;;;1.48;0.30;;;20.50;58.70;;;;;;5014686;28;20116;-79
2023/07/25 07:38:32;;;;;;;1.65;0.52;;;20.60;58.70;;;;;;5014386;28;20038;-80
2023/07/25 07:40:58;;;;;;;1.67;0.60;;;20.60;58.60;;;;;;5014713;28;20033;-76
2023/07/25 07:43:24;;;;;;;1.42;0.50;;;20.60;58.60;;;;;;5014632;28;20026;-80
2023/07/25 07:45:50;;;;;;;2.95;0.70;;;20.60;58.60;;;;;;5014497;28;20022;-80
2023/07/25 07:48:16;;;;;;;2.28;0.63;;;20.60;58.50;;;;;;5014453;28;20027;-77
2023/07/25 07:50:43;;;;;;;1.08;0.45;;;20.70;58.60;;;;;;5014356;28;20022;-77
2023/07/25 07:53:09;;;;;;;1.17;0.35;;;20.70;58.50;;;;;;5014356;28;20439;-78
2023/07/25 07:55:35;;;;;;;2.33;0.45;;;20.70;58.60;;;;;;5014026;28;20026;-77
2023/07/25 07:58:02;;;;;;;2.65;0.50;;;20.70;58.60;;;;;;5014348;28;20373;-78
2023/07/25 08:00:28;;;;;;;2.05;0.80;;;20.70;58.50;;;;;;5014815;28;20029;-79
2023/07/25 08:02:53;;;;;;;1.60;0.47;;;20.80;58.50;;;;;;5013778;28;20439;-78
2023/07/25 08:05:19;;;;;;;4.45;0.50;;;20.70;58.50;;;;;;5014134;28;20034;-79
2023/07/25 08:07:45;;;;;;;2.45;0.70;;;20.80;58.50;;;;;;5014006;28;20022;-79
2023/07/25 08:10:10;;;;;;;2.22;0.40;;;20.80;58.60;;;;;;4996409;28;20092;-78
2023/07/25 08:12:37;;;;;;;1.63;0.50;;;20.80;58.60;;;;;;5014155;28;20026;-78
2023/07/25 08:15:03;;;;;;;2.63;0.63;;;20.80;58.70;;;;;;5013165;28;20026;-78
2023/07/25 08:17:28;;;;;;;1.95;0.50;;;20.80;58.70;;;;;;5013334;28;20092;-78
2023/07/25 08:19:54;;;;;;;2.40;0.77;;;20.80;58.80;;;;;;5013821;28;20097;-78
2023/07/25 08:22:20;;;;;;;2.58;0.80;;;20.80;58.80;;;;;;5013840;28;20033;-78
2023/07/25 08:24:46;;;;;;;2.92;0.77;;;20.80;59.00;;;;;;5013717;28;20040;-78
2023/07/25 08:27:12;;;;;;;3.15;0.68;;;20.90;59.10;;;;;;5013717;28;20064;-78
2023/07/25 08:29:41;;;;;;;2.15;0.63;;;20.90;59.10;;;;;;5014439;28;20084;-79
2023/07/25 08:32:10;;;;;;;2.55;0.98;;;20.90;59.20;;;;;;5013598;28;20464;-78
2023/07/25 08:34:37;;;;;;;2.78;0.60;;;20.90;59.20;;;;;;5013699;28;20085;-78
2023/07/25 08:37:03;;;;;;;1.58;0.50;;;20.90;59.20;;;;;;5013638;28;20037;-78
2023/07/25 08:39:29;;;;;;;1.30;0.50;;;21.00;59.20;;;;;;5013572;28;20070;-78
2023/07/25 08:41:56;;;;;;;1.85;0.60;;;21.00;59.30;;;;;;5013806;28;20030;-79
2023/07/25 08:44:24;;;;;;;1.77;0.93;;;21.00;59.30;;;;;;5016858;28;20431;-88
2023/07/25 08:46:53;;;;;;;4.70;0.88;;;21.00;59.50;;;;;;4996738;28;20026;-78
2023/07/25 08:49:23;;;;;;;2.47;0.70;;;21.00;59.50;;;;;;5013489;28;20037;-78
2023/07/25 08:51:52;;;;;;;1.58;0.77;;;21.10;59.60;;;;;;5013734;28;20361;-75
2023/07/25 08:54:31;;;;;;;2.43;0.80;;;21.10;59.60;;;;;;5013415;28;20049;-77
2023/07/25 08:56:58;;;;;;;1.98;0.60;;;21.10;59.60;;;;;;5013360;28;20280;-77
2023/07/25 08:59:25;;;;;;;2.25;0.82;;;21.10;59.90;;;;;;5013320;28;20065;-77
2023/07/25 09:01:52;;;;;;;1.85;0.93;;;21.20;60.10;;;;;;5012988;28;20378;-76
2023/07/25 09:04:20;;;;;;;2.70;1.08;;;21.20;60.20;;;;;;5013324;28;20088;-76
2023/07/25 09:06:46;;;;;;;1.88;0.60;;;21.20;60.20;;;;;;5012887;28;20476;-81
2023/07/25 09:09:13;;;;;;;1.30;0.70;;;21.30;60.30;;;;;;5013002;28;20033;-79
2023/07/25 09:11:39;;;;;;;1.45;0.70;;;21.30;60.40;;;;;;5013166;28;20108;-78
2023/07/25 09:14:06;;;;;;;1.42;0.60;;;21.30;60.30;;;;;;5013102;28;20026;-78
2023/07/25 09:16:33;;;;;;;1.88;0.73;;;21.40;60.40;;;;;;4995734;28;20022;-77
2023/07/25 09:18:59;;;;;;;3.85;1.00;;;21.40;60.50;;;;;;5013008;28;20049;-76
2023/07/25 09:21:27;;;;;;;2.30;0.70;;;21.40;60.50;;;;;;5012845;28;20113;-76
2023/07/25 09:23:57;;;;;;;2.58;1.10;;;21.50;60.60;;;;;;5012513;28;20174;-76
2023/07/25 09:26:30;;;;;;;3.10;0.77;;;21.50;60.60;;;;;;5012557;28;20037;-77
2023/07/25 09:28:59;;;;;;;4.40;1.05;;;21.60;60.50;;;;;;5012092;28;20029;-76
2023/07/25 09:31:26;;;;;;;1.23;0.52;;;21.60;60.60;;;;;;4994772;28;20025;-76
2023/07/25 09:33:54;;;;;;;2.15;0.60;;;21.60;60.40;;;;;;5012546;28;20384;-77
2023/07/25 09:36:20;;;;;;;3.58;1.17;;;21.70;60.40;;;;;;5012610;28;20029;-76
2023/07/25 09:38:54;;;;;;;2.70;0.75;;;21.80;60.50;;;;;;4994661;28;20069;-78
2023/07/25 09:41:22;;;;;;;1.75;0.50;;;21.80;60.40;;;;;;5012368;28;20109;-78
2023/07/25 09:43:47;;;;;;;3.83;0.70;;;21.80;60.40;;;;;;4994716;28;20026;-78
2023/07/25 09:46:13;;;;;;;1.77;0.57;;;21.80;60.50;;;;;;5012566;28;20496;-77
2023/07/25 09:48:47;;;;;;;4.18;1.10;;;21.80;60.60;;;;;;5012398;28;20388;-77
2023/07/25 09:51:14;;;;;;;3.53;1.45;;;21.80;59.90;;;;;;5012509;28;20062;-77
2023/07/25 09:53:54;;;;;;;1.67;0.65;;;21.80;60.30;;;;;;5012582;28;20025;-77
2023/07/25 09:56:22;;;;;;;1.98;0.50;;;21.90;60.00;;;;;;5012128;28;20021;-76
2023/07/25 09:58:52;;;;;;;1.52;0.60;;;22.00;60.30;;;;;;4994058;28;20033;-77
2023/07/25 10:01:18;;;;;;;3.47;0.60;;;21.90;78.90;;;;;;5012130;28;20021;-79
2023/07/25 10:03:44;;;;;;;1.90;0.60;;;22.40;79.00;;;;;;5011953;28;20057;-80
2023/07/25 10:06:14;;;;;;;2.25;0.60;;;22.10;59.80;;;;;;5012178;28;20455;-77
2023/07/25 10:08:42;;;;;;;1.55;0.65;;;22.10;59.50;;;;;;5012414;28;20097;-76
2023/07/25 10:11:08;;;;;;;2.35;0.70;;;22.20;59.90;;;;;;5012300;28;20025;-77
2023/07/25 10:13:33;;;;;;;2.08;0.75;;;22.20;59.30;;;;;;5012369;28;20112;-76
2023/07/25 10:16:01;;;;;;;1.45;0.57;;;22.10;58.80;;;;;;5012003;28;20057;-79
2023/07/25 10:18:27;;;;;;;1.45;0.50;;;22.20;59.60;;;;;;4994327;28;20122;-77
2023/07/25 10:20:54;;;;;;;2.70;0.80;;;22.20;59.90;;;;;;5011941;28;20145;-79
2023/07/25 10:23:29;;;;;;;4.53;0.90;;;22.20;59.90;;;;;;5011263;28;20090;-78
2023/07/25 10:25:55;;;;;;;2.00;0.52;;;22.20;60.00;;;;;;5012195;28;20392;-75
2023/07/25 10:28:22;;;;;;;3.60;0.70;;;22.20;59.90;;;;;;5011888;28;20075;-76
2023/07/25 10:30:48;;;;;;;1.88;0.63;;;22.20;59.50;;;;;;5011922;28;20026;-75
2023/07/25 10:33:15;;;;;;;3.65;0.60;;;22.30;59.30;;;;;;5011856;28;20033;-76
2023/07/25 10:35:49;;;;;;;1.02;0.43;;;22.40;59.10;;;;;;5012003;28;20064;-77
2023/07/25 10:38:34;;;;;;;2.47;0.65;;;22.40;59.00;;;;;;5011840;28;20073;-76
2023/07/25 10:41:01;;;;;;;4.55;0.77;;;22.40;59.00;;;;;;5015606;28;20021;-76
2023/07/25 10:43:29;;;;;;;3.40;0.82;;;22.40;58.90;;;;;;5015657;28;20026;-76
2023/07/25 10:45:59;;;;;;;3.45;0.70;;;22.50;58.80;;;;;;5015529;28;20419;-76
2023/07/25 10:48:43;;;;;;;1.38;0.50;;;22.40;59.10;;;;;;5015519;28;20108;-76
2023/07/25 10:51:09;;;;;;;0.80;0.40;;;22.40;59.10;;;;;;5015933;28;20034;-77
2023/07/25 10:53:35;;;;;;;1.98;0.50;;;22.40;58.80;;;;;;5015572;28;20025;-80
2023/07/25 10:56:03;;;;;;;1.55;0.50;;;22.50;59.00;;;;;;5015291;28;20027;-77
2023/07/25 10:58:30;;;;;;;2.17;0.50;;;22.60;58.20;;;;;;5015327;28;20044;-80
2023/07/25 11:00:56;;;;;;;1.75;0.55;;;22.80;57.90;;;;;;5015266;28;20046;-79
2023/07/25 11:03:29;;;;;;;2.45;0.68;;;22.80;57.00;;;;;;5009441;28;20046;-76
2023/07/25 11:06:06;;;;;;;2.08;0.75;;;22.90;57.50;;;;;;5015079;28;20032;-78
2023/07/25 11:08:40;;;;;;;1.40;0.60;;;23.10;57.20;;;;;;5015021;28;20084;-76
2023/07/25 11:11:08;;;;;;;0.50;0.35;;;23.10;56.40;;;;;;5015017;28;20480;-78
2023/07/25 11:13:36;;;;;;;1.52;0.60;;;23.80;57.00;;;;;;5015034;28;20038;-77
2023/07/25 11:16:03;;;;;;;2.83;0.70;;;23.40;56.40;;;;;;5014983;28;20428;-77
2023/07/25 11:18:33;;;;;;;0.80;0.40;;;23.50;56.20;;;;;;5014727;28;20034;-77
2023/07/25 11:21:01;;;;;;;2.95;0.88;;;23.80;73.80;;;;;;5015342;28;20104;-77
2023/07/25 11:23:26;;;;;;;2.50;0.63;;;23.60;55.20;;;;;;5014840;28;20453;-77
2023/07/25 11:25:57;;;;;;;1.63;0.45;;;23.80;55.60;;;;;;5015172;28;20105;-81
2023/07/25 11:28:23;;;;;;;1.65;0.65;;;23.90;55.40;;;;;;5014737;28;20062;-81
2023/07/25 11:30:48;;;;;;;1.63;0.70;;;23.90;55.40;;;;;;5015033;28;20058;-81
2023/07/25 11:33:14;;;;;;;0.70;0.40;;;23.90;55.40;;;;;;5014808;28;20091;-81
2023/07/25 11:35:40;;;;;;;0.73;0.47;;;23.80;55.20;;;;;;5014867;28;20189;-81
2023/07/25 11:38:06;;;;;;;1.85;0.50;;;23.90;55.30;;;;;;5014537;28;20077;-81
2023/07/25 11:40:31;;;;;;;2.58;0.50;;;23.90;55.10;;;;;;5014688;28;20113;-80
2023/07/25 11:42:57;;;;;;;1.88;0.50;;;24.00;55.00;;;;;;5014610;28;20136;-75
2023/07/25 11:45:24;;;;;;;1.75;0.68;;;24.10;54.70;;;;;;5014496;28;20145;-79
2023/07/25 11:47:51;;;;;;;1.85;0.40;;;24.10;55.00;;;;;;5015216;28;20077;-78
2023/07/25 11:50:20;;;;;;;1.20;0.50;;;24.20;55.00;;;;;;4980452;28;20022;-79
2023/07/25 11:52:47;;;;;;;1.47;0.57;;;24.30;54.60;;;;;;5014478;28;20034;-79
2023/07/25 11:55:13;;;;;;;1.02;0.50;;;24.40;54.60;;;;;;5014333;28;20044;-78
2023/07/25 11:57:41;;;;;;;0.98;0.40;;;24.50;54.40;;;;;;5014518;28;20038;-77
2023/07/25 12:00:15;;;;;;;0.93;0.40;;;24.50;54.50;;;;;;5014271;28;20061;-79
2023/07/25 12:02:42;;;;;;;0.98;0.40;;;24.50;54.00;;;;;;5014065;28;20050;-75
2023/07/25 12:05:08;;;;;;;1.83;0.30;;;24.50;54.00;;;;;;5013952;28;20445;-74
2023/07/25 12:07:58;;;;;;;2.85;0.60;;;24.40;54.10;;;;;;5013931;28;20554;-73
2023/07/25 12:10:29;;;;;;;1.10;0.52;;;24.30;54.50;;;;;;5013964;28;20033;-73
2023/07/25 12:12:56;;;;;;;1.80;0.40;;;24.30;54.50;;;;;;5013949;28;20030;-74
2023/07/25 12:15:24;;;;;;;2.17;0.57;;;24.30;54.70;;;;;;5013913;28;20050;-76
2023/07/25 12:17:49;;;;;;;0.77;0.30;;;24.50;54.60;;;;;;5013822;28;20404;-75
2023/07/25 12:20:19;;;;;;;2.95;0.50;;;24.60;54.00;;;;;;5013937;28;20018;-76
2023/07/25 12:22:46;;;;;;;0.98;0.38;;;24.50;52.10;;;;;;5013724;28;20036;-75
2023/07/25 12:25:18;;;;;;;0.35;0.20;;;24.60;52.80;;;;;;5013667;28;20022;-75
2023/07/25 12:27:46;;;;;;;1.52;0.50;;;24.60;53.60;;;;;;5013592;28;20026;-75
2023/07/25 12:30:12;;;;;;;1.80;0.47;;;24.60;53.60;;;;;;4996232;28;20030;-75
2023/07/25 12:32:37;;;;;;;1.05;0.32;;;24.60;54.10;;;;;;5013467;28;20107;-75
2023/07/25 12:35:03;;;;;;;1.63;0.45;;;24.60;54.10;;;;;;5013439;28;20066;-76
2023/07/25 12:37:29;;;;;;;1.15;0.65;;;25.00;71.90;;;;;;5013565;28;20030;-75
2023/07/25 12:39:55;;;;;;;0.52;0.20;;;24.80;53.70;;;;;;4995707;28;20345;-75
2023/07/25 12:42:20;;;;;;;1.50;0.55;;;24.90;52.50;;;;;;5013315;28;20084;-76
2023/07/25 12:44:46;;;;;;;0.65;0.20;;;25.00;52.00;;;;;;5013262;28;20427;-76